Decoded Metar for KD55 ( in ) (IATA:) | Meteo·Mobile Aviation Weather
aviador You're here:

KD55 Decoded Metar

in
Report Time2019-02-22 14:35:00
UTC Time2019-02-22 14:44:07
Flight Rules vfr VFR
Wind220° at 06 kt
W.Rank220° ranks 14
Current wind is below 220° avg. (9.7)
Visibility9999 m
Phenomena:N/A
Clouds:N/A
Expected CloudBase > 400 ft AGL from Temp-Dew spread
CeilingNone
Temp-25°C
Dew Point-26°C (91% RH)
AAT-30.9°C
QNH1023 hPa
Raw Report
KD55 221435Z AUTO 22006KT 10SM CLR M25/M26 A3021 RMK AO2=

Extra information for KD55:More info

Social comments